Time;durP1;ratioP1;P1;durP2;ratioP2;P2;SDS_P1;SDS_P2;PMS_P1;PMS_P2;Temp;Humidity;BMP_temperature;BMP_pressure;BME280_temperature;BME280_humidity;BME280_pressure;Samples;Min_cycle;Max_cycle;Signal;HPM_P1;HPM_P2
2022/02/09 00:00:27;;;;;;;3.80;3.33;;;9.40;87.60;;;;;;1882324;75;21123;-45
2022/02/09 00:03:13;;;;;;;7.72;4.83;;;9.40;87.00;;;;;;1882308;75;21067;-45
2022/02/09 00:05:45;;;;;;;6.00;3.65;;;9.40;87.20;;;;;;1881942;75;21091;-46
2022/02/09 00:08:12;;;;;;;7.33;4.20;;;9.40;87.00;;;;;;1881650;75;21036;-46
2022/02/09 00:10:44;;;;;;;6.67;3.62;;;9.40;87.10;;;;;;1882347;76;21032;-46
2022/02/09 00:13:33;;;;;;;4.12;3.52;;;9.40;87.10;;;;;;1882208;76;21107;-45
2022/02/09 00:15:55;;;;;;;9.70;3.50;;;9.40;87.20;;;;;;1877370;75;21530;-45
2022/02/09 00:18:26;;;;;;;6.12;3.47;;;9.40;87.10;;;;;;1880018;75;21118;-46
2022/02/09 00:23:44;;;;;;;6.42;3.15;;;9.40;87.20;;;;;;1845743;76;21056;-45
2022/02/09 00:31:52;;;;;;;5.78;3.83;;;9.50;87.30;;;;;;1882878;75;21173;-45
2022/02/09 00:37:12;;;;;;;8.95;3.65;;;9.40;87.50;;;;;;1882434;75;21036;-46
2022/02/09 00:42:13;;;;;;;5.60;3.40;;;9.40;87.80;;;;;;1882486;75;21110;-46
2022/02/09 00:44:40;;;;;;;5.58;3.45;;;9.40;87.70;;;;;;1878907;75;21109;-45
2022/02/09 01:12:35;;;;;;;6.00;3.27;;;9.50;87.90;;;;;;1873007;77;21017;-45
2022/02/09 01:39:23;;;;;;;12.63;7.50;;;9.30;88.30;;;;;;1872802;77;21041;-46
2022/02/09 01:43:06;;;;;;;14.05;9.30;;;9.30;88.30;;;;;;1872160;76;21044;-45
2022/02/09 01:55:29;;;;;;;19.57;11.38;;;9.10;88.50;;;;;;1841303;77;21165;-47
2022/02/09 01:57:57;;;;;;;17.45;10.30;;;9.10;88.60;;;;;;1856343;77;21039;-48
2022/02/09 02:00:27;;;;;;;18.05;11.03;;;9.10;88.50;;;;;;1867769;75;21047;-47
2022/02/09 02:03:02;;;;;;;18.80;11.45;;;9.00;88.70;;;;;;1867860;76;21475;-47
2022/02/09 02:05:33;;;;;;;20.97;12.45;;;8.90;88.50;;;;;;1867674;77;21099;-46
2022/02/09 02:08:03;;;;;;;20.92;11.08;;;8.90;88.80;;;;;;1867850;76;21560;-46
2022/02/09 02:13:32;;;;;;;19.82;13.18;;;8.80;89.00;;;;;;1867688;76;21113;-46
2022/02/09 02:16:15;;;;;;;19.52;11.68;;;8.80;88.90;;;;;;1865694;77;21044;-47
2022/02/09 02:18:30;;;;;;;18.32;12.00;;;8.80;88.70;;;;;;1865024;76;21036;-46
2022/02/09 02:37:15;;;;;;;12.47;8.18;;;8.60;89.70;;;;;;1867656;76;21056;-46
2022/02/09 02:40:09;;;;;;;9.78;6.72;;;8.50;89.70;;;;;;1865546;76;21118;-47
2022/02/09 02:56:47;;;;;;;5.65;4.33;;;8.20;90.00;;;;;;1867766;75;21047;-46
2022/02/09 02:59:20;;;;;;;4.55;3.20;;;7.90;90.30;;;;;;1872778;77;21080;-47
2022/02/09 03:12:42;;;;;;;5.72;4.05;;;7.50;90.30;;;;;;1873001;77;21126;-46
2022/02/09 03:15:31;;;;;;;4.40;3.37;;;7.50;90.30;;;;;;1872745;76;21056;-46
2022/02/09 03:18:02;;;;;;;4.65;3.10;;;7.50;90.40;;;;;;1870719;76;21052;-46
2022/02/09 03:20:25;;;;;;;4.80;3.77;;;7.40;90.20;;;;;;1871819;75;21009;-47
2022/02/09 03:23:26;;;;;;;3.33;3.02;;;7.30;90.30;;;;;;1872405;76;21052;-46
2022/02/09 03:31:21;;;;;;;4.15;3.27;;;7.10;90.60;;;;;;1863050;76;21107;-45
2022/02/09 03:47:41;;;;;;;6.95;5.55;;;6.90;90.70;;;;;;1872960;77;21083;-45
2022/02/09 03:55:38;;;;;;;5.35;4.33;;;6.80;90.90;;;;;;1882370;76;21028;-46
2022/02/09 03:57:51;;;;;;;5.85;3.87;;;6.80;90.80;;;;;;1879827;76;21506;-48
2022/02/09 04:00:30;;;;;;;5.62;4.42;;;6.80;90.80;;;;;;1882381;76;21063;-46
2022/02/09 04:02:57;;;;;;;4.05;3.55;;;6.80;90.80;;;;;;1881264;76;21564;-47
2022/02/09 04:05:26;;;;;;;5.42;3.27;;;6.70;90.90;;;;;;1882351;76;21153;-46
2022/02/09 04:07:56;;;;;;;3.90;2.90;;;6.60;90.90;;;;;;1882411;75;21044;-45
2022/02/09 04:10:35;;;;;;;3.12;2.22;;;6.60;90.80;;;;;;1882441;76;21048;-46
2022/02/09 04:13:13;;;;;;;2.62;1.95;;;6.50;90.80;;;;;;1881111;76;21020;-45
2022/02/09 04:15:58;;;;;;;4.47;3.45;;;6.50;90.90;;;;;;1880480;76;21181;-45
2022/02/09 04:18:40;;;;;;;2.15;1.95;;;6.40;90.80;;;;;;1881135;76;21051;-46
2022/02/09 04:40:09;;;;;;;4.03;2.12;;;5.90;91.10;;;;;;1882498;76;21040;-46
2022/02/09 04:42:44;;;;;;;2.65;2.45;;;5.90;91.20;;;;;;1881170;76;21036;-46
2022/02/09 04:50:31;;;;;;;4.08;2.72;;;5.90;91.40;;;;;;1882433;76;21056;-45
2022/02/09 04:54:11;;;;;;;4.25;3.30;;;5.90;91.20;;;;;;1879704;76;21072;-47
2022/02/09 04:55:50;;;;;;;2.92;2.65;;;5.90;91.10;;;;;;1871610;77;21025;-48
2022/02/09 05:01:07;;;;;;;1.98;1.80;;;5.80;91.00;;;;;;1858172;77;21138;-46
2022/02/09 05:28:18;;;;;;;6.60;4.22;;;5.40;90.90;;;;;;1884968;75;21114;-45
2022/02/09 05:30:48;;;;;;;3.87;3.05;;;5.40;90.90;;;;;;1884313;76;21075;-44
2022/02/09 05:33:17;;;;;;;6.58;4.05;;;5.30;90.90;;;;;;1884695;76;21110;-45
2022/02/09 05:35:47;;;;;;;8.70;4.75;;;5.30;90.80;;;;;;1884948;76;21032;-45
2022/02/09 05:38:17;;;;;;;6.95;4.58;;;5.30;91.00;;;;;;1884987;76;21111;-45
2022/02/09 05:40:47;;;;;;;4.55;3.95;;;5.20;91.10;;;;;;1884961;76;21008;-46
2022/02/09 05:43:17;;;;;;;8.45;4.50;;;5.20;91.00;;;;;;1884853;76;21027;-47
2022/02/09 05:49:16;;;;;;;6.70;4.45;;;5.20;91.00;;;;;;1884947;76;21024;-46
2022/02/09 05:51:12;;;;;;;6.45;4.75;;;5.10;90.90;;;;;;1881864;76;21036;-45
2022/02/09 05:53:56;;;;;;;5.50;3.80;;;5.10;91.10;;;;;;1884300;76;21103;-46
2022/02/09 05:56:20;;;;;;;10.15;4.17;;;5.10;91.10;;;;;;1881629;76;21028;-47
2022/02/09 05:58:47;;;;;;;10.88;7.67;;;5.10;91.10;;;;;;1883159;76;21044;-46
2022/02/09 06:01:10;;;;;;;10.05;5.37;;;5.10;91.20;;;;;;1883743;76;21157;-46
2022/02/09 06:03:39;;;;;;;6.72;4.25;;;5.10;91.20;;;;;;1884813;75;21063;-45
2022/02/09 06:06:09;;;;;;;10.45;6.05;;;5.10;91.20;;;;;;1884940;76;21164;-45
2022/02/09 06:08:39;;;;;;;6.67;4.35;;;5.10;91.00;;;;;;1884931;76;21024;-46
2022/02/09 06:12:04;;;;;;;4.03;3.27;;;5.10;91.10;;;;;;1885077;76;21028;-46
2022/02/09 06:13:58;;;;;;;6.25;4.40;;;5.10;91.20;;;;;;1879301;76;21156;-46
2022/02/09 06:21:37;;;;;;;5.70;3.92;;;5.00;91.00;;;;;;1884898;75;21060;-45
2022/02/09 06:24:07;;;;;;;5.80;4.85;;;5.00;91.00;;;;;;1884907;76;21032;-45
2022/02/09 06:26:36;;;;;;;9.65;5.87;;;5.00;91.00;;;;;;1884960;76;21032;-47
2022/02/09 06:29:05;;;;;;;7.78;5.67;;;5.00;91.00;;;;;;1884955;76;21004;-46
2022/02/09 06:31:36;;;;;;;11.00;6.87;;;5.00;91.10;;;;;;1885111;76;21184;-46
2022/02/09 06:34:08;;;;;;;5.05;3.87;;;5.00;91.10;;;;;;1885073;76;21034;-46
2022/02/09 06:36:41;;;;;;;13.58;7.35;;;5.00;91.20;;;;;;1884969;76;21115;-46
2022/02/09 06:39:10;;;;;;;7.15;4.42;;;5.00;91.10;;;;;;1884790;75;21487;-46
2022/02/09 06:41:41;;;;;;;6.83;4.87;;;5.10;91.10;;;;;;1885141;75;21094;-46
2022/02/09 06:44:11;;;;;;;10.82;6.10;;;5.10;91.00;;;;;;1885128;76;21024;-46
2022/02/09 06:46:41;;;;;;;9.58;5.70;;;5.10;91.00;;;;;;1885144;76;21032;-46
2022/02/09 06:49:10;;;;;;;9.80;6.45;;;5.10;91.00;;;;;;1885077;76;21079;-46
2022/02/09 06:51:43;;;;;;;12.73;7.17;;;5.10;91.00;;;;;;1885054;76;21145;-46
2022/02/09 06:54:22;;;;;;;8.50;6.28;;;5.10;91.00;;;;;;1885014;75;21071;-46
2022/02/09 06:59:30;;;;;;;9.53;4.95;;;5.10;91.00;;;;;;1885466;76;21138;-45
2022/02/09 07:02:04;;;;;;;14.40;7.83;;;5.10;91.00;;;;;;1885025;76;21040;-46
2022/02/09 07:04:33;;;;;;;11.63;7.12;;;5.10;91.10;;;;;;1885061;75;21090;-45
2022/02/09 07:07:02;;;;;;;13.38;9.18;;;5.10;91.10;;;;;;1885117;76;21008;-46
2022/02/09 07:09:31;;;;;;;10.93;8.40;;;5.10;91.00;;;;;;1885032;75;21021;-45
2022/02/09 07:12:00;;;;;;;14.35;8.70;;;5.10;91.10;;;;;;1885077;75;21154;-45
2022/02/09 07:14:30;;;;;;;13.28;7.83;;;5.10;91.00;;;;;;1885177;76;21024;-46
2022/02/09 07:16:59;;;;;;;16.12;8.40;;;5.10;91.00;;;;;;1885001;76;21161;-46
2022/02/09 07:19:29;;;;;;;12.47;7.97;;;5.20;90.90;;;;;;1885146;75;21009;-45
2022/02/09 07:21:59;;;;;;;15.20;7.72;;;5.20;91.00;;;;;;1885009;76;21040;-46
2022/02/09 07:24:30;;;;;;;10.40;5.78;;;5.20;90.90;;;;;;1884982;76;21048;-46
2022/02/09 07:27:24;;;;;;;13.00;8.48;;;5.10;90.70;;;;;;1885011;76;21502;-47
2022/02/09 07:29:33;;;;;;;18.50;10.32;;;5.10;90.70;;;;;;1881806;76;21526;-44
2022/02/09 07:32:02;;;;;;;15.18;8.65;;;5.10;90.70;;;;;;1884972;76;21064;-45
2022/02/09 07:34:32;;;;;;;10.93;8.05;;;5.10;90.80;;;;;;1885162;75;21016;-45
2022/02/09 07:37:01;;;;;;;11.63;6.78;;;5.00;90.90;;;;;;1885022;75;21028;-46
2022/02/09 07:39:32;;;;;;;13.50;9.30;;;5.10;90.90;;;;;;1885166;76;21075;-46
2022/02/09 07:42:09;;;;;;;11.38;8.08;;;5.00;91.00;;;;;;1885261;76;21090;-46
2022/02/09 07:44:45;;;;;;;11.12;7.35;;;5.00;91.00;;;;;;1884179;76;21028;-45
2022/02/09 07:50:14;;;;;;;11.45;7.12;;;5.00;90.70;;;;;;1884978;75;21106;-45
2022/02/09 07:52:19;;;;;;;12.30;7.00;;;5.00;90.80;;;;;;1882104;76;21048;-46
2022/02/09 07:54:39;;;;;;;12.58;8.08;;;5.00;90.90;;;;;;1884626;76;21120;-46
2022/02/09 07:57:08;;;;;;;15.68;7.72;;;5.00;90.90;;;;;;1891562;76;21086;-46
2022/02/09 07:59:38;;;;;;;14.47;9.55;;;4.90;91.00;;;;;;1891190;76;21102;-45
2022/02/09 08:02:08;;;;;;;20.17;11.43;;;4.90;90.80;;;;;;1900532;74;21034;-46
2022/02/09 08:04:37;;;;;;;19.57;11.28;;;4.90;90.80;;;;;;1909431;74;21011;-45
2022/02/09 08:07:06;;;;;;;20.88;11.30;;;4.80;91.00;;;;;;1905119;74;21003;-45
2022/02/09 08:09:40;;;;;;;16.17;10.75;;;4.90;91.00;;;;;;1891487;74;21094;-48
2022/02/09 08:31:43;;;;;;;12.93;6.95;;;4.70;90.60;;;;;;1891478;76;21106;-45
2022/02/09 08:33:41;;;;;;;13.30;7.92;;;4.70;90.60;;;;;;1808202;79;21066;-46
2022/02/09 08:36:10;;;;;;;12.93;8.43;;;4.70;90.50;;;;;;1849687;77;21052;-44
2022/02/09 08:38:42;;;;;;;14.38;8.45;;;4.60;90.60;;;;;;1849745;77;21102;-47
2022/02/09 08:41:12;;;;;;;13.50;7.35;;;4.60;90.70;;;;;;1849749;77;21185;-47
2022/02/09 08:43:41;;;;;;;21.15;11.00;;;4.60;90.60;;;;;;1849767;76;21068;-46
2022/02/09 08:46:11;;;;;;;14.65;6.95;;;4.60;90.70;;;;;;1849802;77;21048;-45
2022/02/09 08:48:40;;;;;;;15.00;6.90;;;4.60;90.90;;;;;;1849640;77;21104;-47
2022/02/09 08:51:09;;;;;;;10.32;6.50;;;4.60;90.90;;;;;;1849705;77;21044;-47
2022/02/09 08:53:38;;;;;;;11.43;7.62;;;4.70;90.90;;;;;;1849788;77;21580;-47
2022/02/09 08:56:08;;;;;;;14.78;8.95;;;4.60;90.80;;;;;;1853239;77;21064;-47
2022/02/09 08:58:38;;;;;;;15.15;8.18;;;4.60;90.70;;;;;;1856335;77;21047;-46
2022/02/09 09:01:23;;;;;;;16.57;10.63;;;4.60;90.70;;;;;;1856312;77;21023;-46
2022/02/09 09:03:49;;;;;;;11.00;7.33;;;4.60;90.70;;;;;;1856281;77;21116;-51
2022/02/09 09:06:21;;;;;;;14.83;8.30;;;4.60;90.80;;;;;;1907942;74;21011;-45
2022/02/09 09:58:01;;;;;;;12.93;8.28;;;4.30;91.30;;;;;;1924700;74;21030;-45
2022/02/09 09:58:35;;;;;;;5.33;4.25;;;4.20;91.20;;;;;;1924618;74;21046;-46
2022/02/09 10:32:27;;;;;;;6.37;5.30;;;4.10;91.00;;;;;;1888398;74;21100;-46
2022/02/09 10:34:30;;;;;;;9.08;5.53;;;4.10;91.00;;;;;;1918253;74;21042;-46
2022/02/09 10:37:06;;;;;;;12.93;4.78;;;4.00;91.00;;;;;;1924556;74;21023;-47
2022/02/09 10:39:53;;;;;;;6.85;5.80;;;4.00;91.00;;;;;;1923390;74;20994;-46
2022/02/09 10:42:19;;;;;;;4.78;3.47;;;4.00;91.00;;;;;;1923652;74;21108;-45
2022/02/09 10:44:53;;;;;;;12.03;9.48;;;4.00;90.90;;;;;;1924405;74;21019;-47
2022/02/09 10:47:27;;;;;;;10.72;7.45;;;4.00;90.90;;;;;;1924577;74;21094;-48
2022/02/09 10:50:14;;;;;;;;;;;4.00;91.00;;;;;;1927521;74;21453;-46
2022/02/09 10:52:51;;;;;;;7.22;5.67;;;3.90;90.80;;;;;;1924492;74;20168;-48
2022/02/09 10:55:44;;;;;;;9.18;6.10;;;3.90;90.80;;;;;;1923454;74;21027;-46
2022/02/09 10:58:24;;;;;;;14.30;6.15;;;3.90;90.80;;;;;;1905284;74;21063;-46
2022/02/09 11:00:53;;;;;;;12.65;6.30;;;3.90;90.90;;;;;;1905102;75;21073;-48
2022/02/09 11:03:29;;;;;;;10.82;5.47;;;4.00;90.90;;;;;;1905148;74;21007;-48
2022/02/09 11:05:56;;;;;;;6.50;4.10;;;4.00;90.80;;;;;;1904474;74;21031;-46
2022/02/09 11:08:25;;;;;;;5.55;4.03;;;3.90;90.70;;;;;;1905225;75;21027;-45
2022/02/09 11:10:55;;;;;;;5.17;4.65;;;3.90;90.70;;;;;;1905277;75;21061;-48
2022/02/09 11:13:24;;;;;;;6.55;4.60;;;3.90;90.60;;;;;;1905366;75;21116;-46
2022/02/09 11:15:54;;;;;;;8.40;5.03;;;3.90;90.50;;;;;;1905143;75;20995;-46
2022/02/09 11:18:24;;;;;;;4.67;4.15;;;3.90;90.30;;;;;;1905345;75;21073;-46
2022/02/09 11:21:05;;;;;;;18.27;8.15;;;3.90;90.30;;;;;;1905168;75;21020;-46
2022/02/09 11:23:57;;;;;;;8.40;7.15;;;3.90;90.40;;;;;;1905070;75;21058;-46
2022/02/09 11:32:18;;;;;;;7.03;5.42;;;3.90;90.10;;;;;;1905249;75;21086;-47
2022/02/09 11:35:28;;;;;;;11.18;7.10;;;3.90;90.30;;;;;;1904938;74;21043;-47
2022/02/09 11:46:03;;;;;;;7.40;5.55;;;3.80;90.10;;;;;;1905246;74;21075;-46
2022/02/09 11:58:37;;;;;;;8.20;6.03;;;3.80;90.40;;;;;;1914030;74;21062;-45
2022/02/09 12:09:53;;;;;;;7.20;4.37;;;3.70;89.30;;;;;;1924932;74;21109;-45
2022/02/09 12:12:25;;;;;;;4.83;3.92;;;3.70;88.70;;;;;;1924587;74;21027;-46
2022/02/09 12:15:11;;;;;;;4.67;3.55;;;3.70;89.00;;;;;;1922661;74;21019;-46
2022/02/09 12:20:23;;;;;;;6.90;4.28;;;3.70;88.80;;;;;;1924650;74;21093;-47
2022/02/09 12:23:12;;;;;;;8.55;5.53;;;3.70;89.40;;;;;;1924263;74;21018;-47
2022/02/09 12:25:47;;;;;;;5.30;3.75;;;3.70;88.40;;;;;;1923774;74;21070;-46
2022/02/09 12:28:35;;;;;;;7.22;4.55;;;3.70;88.50;;;;;;1924739;74;21468;-47
2022/02/09 12:31:10;;;;;;;8.37;5.23;;;3.70;88.30;;;;;;1924540;74;21497;-47
2022/02/09 12:33:44;;;;;;;5.47;4.12;;;3.70;88.60;;;;;;1924886;74;21499;-46
2022/02/09 12:36:19;;;;;;;9.15;4.97;;;3.70;88.60;;;;;;1924901;74;21085;-46
2022/02/09 12:38:50;;;;;;;14.35;7.75;;;3.70;88.10;;;;;;1924745;74;21034;-47
2022/02/09 12:41:21;;;;;;;11.60;4.80;;;3.70;88.50;;;;;;1924610;74;21097;-47
2022/02/09 12:44:07;;;;;;;9.35;6.62;;;3.70;88.00;;;;;;1924643;74;20994;-46
2022/02/09 12:46:38;;;;;;;9.53;5.20;;;3.70;88.30;;;;;;1924603;74;21484;-47
2022/02/09 12:49:12;;;;;;;6.30;5.65;;;3.70;88.70;;;;;;1924398;74;21100;-47
2022/02/09 12:51:44;;;;;;;6.50;3.95;;;3.70;88.40;;;;;;1924539;74;21080;-47
2022/02/09 12:54:14;;;;;;;11.90;6.55;;;3.70;87.90;;;;;;1924755;74;21023;-46
2022/02/09 12:56:53;;;;;;;8.75;5.83;;;3.80;88.60;;;;;;1924705;74;21010;-46
2022/02/09 12:59:22;;;;;;;12.75;7.05;;;3.80;87.80;;;;;;1924620;74;21092;-46
2022/02/09 13:01:54;;;;;;;10.50;5.67;;;3.80;87.20;;;;;;1924679;74;21031;-47
2022/02/09 13:04:38;;;;;;;8.28;4.83;;;3.80;87.40;;;;;;1924840;74;21019;-46
2022/02/09 13:07:16;;;;;;;8.95;6.67;;;3.80;87.20;;;;;;1924675;74;21085;-46
2022/02/09 13:09:52;;;;;;;15.55;7.00;;;3.80;87.30;;;;;;1924871;74;21062;-46
2022/02/09 13:12:27;;;;;;;11.80;6.65;;;3.80;87.70;;;;;;1924714;74;21026;-46
2022/02/09 13:15:11;;;;;;;9.70;5.62;;;3.80;87.30;;;;;;1924794;74;21047;-48
2022/02/09 13:18:28;;;;;;;11.28;6.60;;;3.80;87.60;;;;;;1923623;74;21022;-46
2022/02/09 14:11:40;;;;;;;8.58;6.28;;;3.50;85.10;;;;;;1905185;74;21051;-46
2022/02/09 14:14:49;;;;;;;5.87;4.70;;;3.40;84.10;;;;;;1904330;74;21019;-46
2022/02/09 14:33:57;;;;;;;6.80;4.62;;;3.40;85.10;;;;;;1905317;75;21114;-47
2022/02/09 14:35:48;;;;;;;14.00;5.30;;;3.50;85.30;;;;;;1903183;75;21043;-46
2022/02/09 14:51:57;;;;;;;4.97;3.60;;;3.60;85.50;;;;;;1905100;74;21079;-47
2022/02/09 14:57:00;;;;;;;7.42;4.78;;;3.60;85.10;;;;;;1905167;75;21093;-47
2022/02/09 15:02:22;;;;;;;12.60;6.20;;;3.60;85.00;;;;;;1905258;75;21109;-46
2022/02/09 15:07:48;;;;;;;6.62;4.35;;;3.60;85.60;;;;;;1843489;77;21089;-46
2022/02/09 15:10:25;;;;;;;7.42;4.58;;;3.60;85.30;;;;;;1905191;74;21106;-46
2022/02/09 15:13:03;;;;;;;8.20;4.70;;;3.60;84.40;;;;;;1904748;74;21047;-46
2022/02/09 15:18:36;;;;;;;7.75;4.10;;;3.60;84.50;;;;;;1905299;74;21011;-46
2022/02/09 15:23:22;;;;;;;9.78;4.08;;;3.50;83.60;;;;;;1905265;74;21047;-46
2022/02/09 15:25:53;;;;;;;5.42;3.67;;;3.50;83.10;;;;;;1905223;75;20996;-45
2022/02/09 15:28:21;;;;;;;4.50;3.40;;;3.40;83.00;;;;;;1905343;75;21089;-46
2022/02/09 15:31:04;;;;;;;7.37;4.55;;;3.40;83.30;;;;;;1905295;75;21023;-46
2022/02/09 15:33:32;;;;;;;5.62;2.70;;;3.40;83.70;;;;;;1904208;74;21141;-46
2022/02/09 15:35:57;;;;;;;6.67;4.17;;;3.40;83.60;;;;;;1904465;74;21093;-46
2022/02/09 15:38:32;;;;;;;8.00;4.58;;;3.40;83.90;;;;;;1905121;74;21023;-46
2022/02/09 15:41:10;;;;;;;9.65;4.50;;;3.30;83.80;;;;;;1904658;74;21012;-46
2022/02/09 15:56:18;;;;;;;7.62;3.70;;;3.20;83.30;;;;;;1893521;74;21036;-46
2022/02/09 15:57:28;;;;;;;7.87;4.55;;;3.20;84.30;;;;;;1905349;75;21027;-46
2022/02/09 16:19:31;;;;;;;8.48;4.65;;;3.10;83.80;;;;;;1905277;75;21039;-46
2022/02/09 16:21:50;;;;;;;8.35;5.05;;;3.10;84.00;;;;;;1903347;75;21043;-46
2022/02/09 16:24:25;;;;;;;4.75;3.52;;;3.10;83.70;;;;;;1904295;74;21110;-46
2022/02/09 16:46:21;;;;;;;9.95;5.55;;;3.10;83.90;;;;;;1905233;75;21035;-46
2022/02/09 16:49:01;;;;;;;8.23;5.53;;;3.00;83.70;;;;;;1905343;74;21015;-46
2022/02/09 16:51:25;;;;;;;12.53;6.80;;;3.00;84.10;;;;;;1904747;74;21211;-45
2022/02/09 16:54:08;;;;;;;9.90;6.75;;;3.00;84.10;;;;;;1905337;74;21023;-44
2022/02/09 16:56:44;;;;;;;14.93;7.37;;;3.00;84.30;;;;;;1904649;74;21028;-46
2022/02/09 17:18:47;;;;;;;11.43;6.78;;;3.40;86.10;;;;;;1863892;74;21047;-47
2022/02/09 17:21:00;;;;;;;16.93;9.68;;;3.60;85.90;;;;;;1905431;75;21090;-47
2022/02/09 17:23:29;;;;;;;13.85;6.75;;;3.70;85.80;;;;;;1905318;74;20995;-47
2022/02/09 17:25:58;;;;;;;12.13;6.95;;;3.80;85.70;;;;;;1905277;75;21023;-47
2022/02/09 17:28:28;;;;;;;12.43;6.83;;;3.80;85.80;;;;;;1905385;75;21077;-47
2022/02/09 17:31:03;;;;;;;16.23;7.10;;;3.80;86.10;;;;;;1905160;75;21089;-44
2022/02/09 17:34:01;;;;;;;10.03;6.33;;;3.90;86.10;;;;;;1904841;74;21040;-44
2022/02/09 17:53:24;;;;;;;10.72;6.67;;;4.00;85.80;;;;;;1843525;77;21109;-45
2022/02/09 17:56:01;;;;;;;11.78;6.65;;;4.00;86.00;;;;;;1843363;78;21082;-45
2022/02/09 17:58:29;;;;;;;10.95;6.37;;;4.00;86.30;;;;;;1874417;74;21023;-49
2022/02/09 18:00:59;;;;;;;9.53;5.80;;;4.00;86.40;;;;;;1905184;74;21052;-46
2022/02/09 18:03:30;;;;;;;13.50;6.37;;;4.10;86.50;;;;;;1905330;74;21465;-46
2022/02/09 18:06:13;;;;;;;9.93;5.55;;;4.10;86.60;;;;;;1905274;75;21019;-46
2022/02/09 18:08:43;;;;;;;10.88;5.35;;;4.20;86.80;;;;;;1904037;74;21130;-45
2022/02/09 18:14:12;;;;;;;11.05;6.10;;;4.20;86.70;;;;;;1905474;74;21059;-46
2022/02/09 18:28:02;;;;;;;12.20;5.80;;;4.20;86.60;;;;;;1905292;75;21035;-46
2022/02/09 18:42:13;;;;;;;10.32;5.83;;;4.30;86.70;;;;;;1905296;75;21036;-45
2022/02/09 18:44:02;;;;;;;13.90;6.80;;;4.20;86.50;;;;;;1903185;75;21086;-45
2022/02/09 18:46:55;;;;;;;13.03;6.95;;;4.20;86.70;;;;;;1903410;74;21117;-45
2022/02/09 18:56:54;;;;;;;12.35;6.30;;;4.20;86.90;;;;;;1902644;75;21023;-45
2022/02/09 19:03:24;;;;;;;8.80;5.03;;;4.20;86.20;;;;;;1905190;75;21101;-46
2022/02/09 19:05:40;;;;;;;7.85;4.90;;;4.10;86.30;;;;;;1902698;75;21093;-45
2022/02/09 19:16:41;;;;;;;9.98;5.90;;;4.00;87.20;;;;;;1905253;75;21031;-46
2022/02/09 19:19:08;;;;;;;11.33;6.25;;;4.10;87.30;;;;;;1903303;75;21035;-46
2022/02/09 19:40:38;;;;;;;8.88;5.37;;;4.30;87.20;;;;;;1905349;75;21093;-45
2022/02/09 19:40:54;;;;;;;9.25;5.83;;;4.30;87.20;;;;;;1905219;75;21016;-45
2022/02/09 19:48:36;;;;;;;7.58;5.00;;;4.40;87.30;;;;;;1874117;74;21035;-45
2022/02/09 19:51:31;;;;;;;9.48;5.55;;;4.40;87.30;;;;;;1904695;74;21168;-45
2022/02/09 19:54:04;;;;;;;8.33;5.62;;;4.40;87.30;;;;;;1903816;74;21109;-45
2022/02/09 19:56:20;;;;;;;7.67;5.33;;;4.40;87.30;;;;;;1903506;74;21097;-45
2022/02/09 20:01:19;;;;;;;8.00;5.60;;;4.40;87.00;;;;;;1905245;75;21106;-45
2022/02/09 20:03:49;;;;;;;6.12;4.40;;;4.30;86.90;;;;;;1905294;75;21462;-45
2022/02/09 20:06:19;;;;;;;9.55;6.10;;;4.30;87.00;;;;;;1905214;75;21082;-47
2022/02/09 20:08:48;;;;;;;9.85;5.58;;;4.20;87.30;;;;;;1905271;75;21085;-45
2022/02/09 20:11:18;;;;;;;18.12;7.75;;;4.20;87.50;;;;;;1905155;74;21142;-46
2022/02/09 20:13:50;;;;;;;16.70;8.30;;;4.20;87.20;;;;;;1905351;74;21027;-46
2022/02/09 20:16:20;;;;;;;16.75;7.78;;;4.10;86.70;;;;;;1905403;75;21070;-45
2022/02/09 20:18:53;;;;;;;11.60;7.37;;;4.00;86.20;;;;;;1905236;75;21031;-45
2022/02/09 20:21:24;;;;;;;13.18;8.08;;;3.90;86.80;;;;;;1905279;75;20988;-45
2022/02/09 20:23:53;;;;;;;13.88;7.50;;;3.80;87.60;;;;;;1905222;75;21047;-46
2022/02/09 20:26:24;;;;;;;11.48;7.40;;;3.90;87.80;;;;;;1905311;74;21035;-45
2022/02/09 20:29:02;;;;;;;13.55;9.03;;;3.90;87.90;;;;;;1905355;75;21019;-45
2022/02/09 20:31:33;;;;;;;13.28;9.23;;;4.00;88.00;;;;;;1905299;74;21000;-45
2022/02/09 20:34:05;;;;;;;16.50;9.40;;;3.90;87.90;;;;;;1904963;74;21109;-45
2022/02/09 20:36:31;;;;;;;12.33;9.00;;;3.90;88.00;;;;;;1905002;74;21415;-45
2022/02/09 20:39:03;;;;;;;14.03;8.28;;;3.90;87.70;;;;;;1905450;75;21820;-45
2022/02/09 20:41:33;;;;;;;14.80;8.98;;;3.90;87.30;;;;;;1905378;74;21478;-45
2022/02/09 20:44:53;;;;;;;16.65;10.45;;;3.90;87.70;;;;;;1905571;75;21039;-45
2022/02/09 20:46:34;;;;;;;16.27;7.97;;;3.90;88.60;;;;;;1885243;75;21031;-45
2022/02/09 20:49:05;;;;;;;11.50;8.55;;;4.00;88.30;;;;;;1905332;75;21036;-45
2022/02/09 20:51:34;;;;;;;11.68;8.30;;;4.00;88.30;;;;;;1905228;75;21016;-46
2022/02/09 20:54:04;;;;;;;11.73;8.68;;;4.10;88.30;;;;;;1905266;75;21019;-45
2022/02/09 20:56:34;;;;;;;11.38;7.33;;;4.20;88.30;;;;;;1905336;74;21031;-45
2022/02/09 20:59:07;;;;;;;12.63;7.67;;;4.20;88.30;;;;;;1905223;74;21147;-44
2022/02/09 21:01:47;;;;;;;9.03;7.33;;;4.20;88.30;;;;;;1905029;74;21043;-46
2022/02/09 21:04:09;;;;;;;10.88;7.50;;;4.30;88.30;;;;;;1903492;74;21101;-46
2022/02/09 21:09:37;;;;;;;10.25;6.70;;;4.30;88.30;;;;;;1905333;75;21098;-46
2022/02/09 21:12:11;;;;;;;11.15;7.17;;;4.30;88.30;;;;;;1904310;74;21117;-46
2022/02/09 21:17:35;;;;;;;10.78;6.70;;;4.40;88.40;;;;;;1905236;74;21037;-45
2022/02/09 21:20:13;;;;;;;9.25;5.65;;;4.40;88.50;;;;;;1903587;74;21140;-46
2022/02/09 21:33:12;;;;;;;9.28;4.97;;;4.40;88.50;;;;;;1868856;74;21032;-45
2022/02/09 21:54:49;;;;;;;8.25;4.12;;;4.20;88.20;;;;;;1905291;74;21040;-45
2022/02/09 22:00:58;;;;;;;9.83;5.20;;;4.20;88.00;;;;;;1905302;75;21055;-45
2022/02/09 22:33:27;;;;;;;7.33;4.78;;;4.60;87.30;;;;;;1924708;74;21050;-47
2022/02/09 22:46:11;;;;;;;6.35;3.95;;;4.50;87.50;;;;;;1924816;74;21038;-45
2022/02/09 22:49:00;;;;;;;8.23;4.20;;;4.50;87.10;;;;;;1922216;74;21043;-45
2022/02/09 22:56:41;;;;;;;5.53;3.85;;;4.60;87.70;;;;;;1924575;74;21034;-45
2022/02/09 22:59:18;;;;;;;8.65;3.92;;;4.60;87.80;;;;;;1924608;74;21021;-46
2022/02/09 23:01:50;;;;;;;5.53;4.03;;;4.70;87.70;;;;;;1923736;74;21018;-45
2022/02/09 23:12:27;;;;;;;8.90;5.90;;;4.50;84.70;;;;;;1905319;74;21082;-45
2022/02/09 23:15:06;;;;;;;6.75;5.10;;;4.30;86.30;;;;;;1904658;74;21105;-45
